Time;durP1;ratioP1;P1;durP2;ratioP2;P2;SDS_P1;SDS_P2;PMS_P1;PMS_P2;Temp;Humidity;BMP_temperature;BMP_pressure;BME280_temperature;BME280_humidity;BME280_pressure;Samples;Min_cycle;Max_cycle;Signal;HPM_P1;HPM_P2
2021/10/04 00:02:08;;;;;;;17.75;10.88;;;;;;;9.07;62.96;101847.45;1734059;81;23269;-58
2021/10/04 00:04:34;;;;;;;15.40;10.20;;;;;;;9.05;62.86;101852.41;1711132;81;21067;-58
2021/10/04 00:07:03;;;;;;;21.77;10.50;;;;;;;8.98;63.12;101843.99;1744468;80;21083;-58
2021/10/04 00:09:31;;;;;;;17.48;10.50;;;;;;;8.92;63.46;101850.85;1738048;80;21070;-58
2021/10/04 00:11:58;;;;;;;17.27;11.55;;;;;;;8.86;63.70;101853.77;1733264;81;21058;-58
2021/10/04 00:14:24;;;;;;;15.20;10.30;;;;;;;8.85;63.65;101848.16;1735046;80;21506;-58
2021/10/04 00:16:52;;;;;;;14.55;10.28;;;;;;;8.87;63.41;101850.23;1732318;81;21051;-58
2021/10/04 00:19:18;;;;;;;17.75;11.10;;;;;;;8.90;63.16;101848.77;1739329;81;21043;-58
2021/10/04 00:21:44;;;;;;;15.03;10.45;;;;;;;8.90;63.28;101850.09;1736373;82;21066;-58
2021/10/04 00:24:11;;;;;;;17.12;10.80;;;;;;;8.87;63.42;101842.36;1711188;81;21607;-58
2021/10/04 00:26:37;;;;;;;17.35;11.85;;;;;;;8.83;63.47;101837.73;1739606;82;21096;-58
2021/10/04 00:29:04;;;;;;;15.88;10.93;;;;;;;8.81;63.44;101836.09;1737769;81;21043;-58
2021/10/04 00:31:31;;;;;;;18.57;11.68;;;;;;;8.77;63.46;101839.80;1737457;81;22201;-58
2021/10/04 00:33:58;;;;;;;15.95;11.88;;;;;;;8.71;63.51;101830.00;1729770;81;21058;-58
2021/10/04 00:36:24;;;;;;;22.67;12.50;;;;;;;8.67;63.63;101831.52;1739497;80;21118;-58
2021/10/04 00:38:53;;;;;;;18.02;11.08;;;;;;;8.63;63.69;101832.14;1741961;81;21651;-58
2021/10/04 00:41:19;;;;;;;16.97;11.80;;;;;;;8.58;63.68;101828.05;1737511;81;21489;-58
2021/10/04 00:43:47;;;;;;;20.82;11.15;;;;;;;8.53;63.72;101825.64;1706163;81;21626;-58
2021/10/04 00:46:13;;;;;;;16.20;11.55;;;;;;;8.48;63.52;101824.55;1702855;82;20986;-59
2021/10/04 00:48:40;;;;;;;16.02;10.50;;;;;;;8.42;63.71;101823.95;1732680;81;21595;-58
2021/10/04 00:51:07;;;;;;;20.10;10.55;;;;;;;8.43;63.85;101821.30;1676417;83;21157;-58
2021/10/04 00:53:33;;;;;;;17.77;10.40;;;;;;;8.51;63.63;101815.22;1706647;81;21059;-58
2021/10/04 00:55:59;;;;;;;15.23;10.30;;;;;;;8.58;63.69;101821.02;1733180;80;21034;-58
2021/10/04 00:58:26;;;;;;;14.80;9.35;;;;;;;8.64;63.71;101819.86;1710590;82;21114;-58
2021/10/04 01:00:53;;;;;;;15.65;10.43;;;;;;;8.66;63.79;101815.41;1742747;80;21036;-58
2021/10/04 01:03:19;;;;;;;18.12;10.40;;;;;;;8.65;63.44;101813.70;1742700;80;22476;-58
2021/10/04 01:05:46;;;;;;;16.40;10.72;;;;;;;8.63;63.29;101812.94;1702505;82;21055;-58
2021/10/04 01:08:12;;;;;;;13.45;10.08;;;;;;;8.62;63.26;101812.06;1709445;82;21054;-58
2021/10/04 01:10:39;;;;;;;15.18;10.48;;;;;;;8.60;63.30;101817.86;1678138;83;21672;-59
2021/10/04 01:13:05;;;;;;;14.45;10.30;;;;;;;8.54;63.38;101813.77;1676460;85;21062;-58
2021/10/04 01:15:32;;;;;;;14.13;10.25;;;;;;;8.48;63.41;101823.23;1677449;83;21404;-58
2021/10/04 01:17:59;;;;;;;16.40;11.20;;;;;;;8.41;63.66;101827.52;1705085;83;21047;-58
2021/10/04 01:20:26;;;;;;;15.63;10.98;;;;;;;8.35;63.77;101826.89;1678428;83;21541;-58
2021/10/04 01:22:54;;;;;;;14.98;10.38;;;;;;;8.29;63.92;101828.48;1668795;83;21082;-58
2021/10/04 01:25:20;;;;;;;15.20;10.95;;;;;;;8.27;64.14;101839.52;1674822;83;21142;-58
2021/10/04 01:27:48;;;;;;;18.32;10.98;;;;;;;8.30;63.91;101837.20;1709507;82;21547;-58
2021/10/04 01:30:15;;;;;;;17.67;10.60;;;;;;;8.32;63.89;101838.84;1705517;82;21114;-58
2021/10/04 01:32:42;;;;;;;16.82;11.70;;;;;;;8.32;63.78;101833.59;1693018;84;21531;-57
2021/10/04 01:35:09;;;;;;;17.17;11.48;;;;;;;8.29;63.73;101828.96;1674260;83;21053;-58
2021/10/04 01:37:36;;;;;;;17.90;11.40;;;;;;;8.25;63.70;101834.78;1708458;82;21048;-58
2021/10/04 01:40:05;;;;;;;17.37;12.07;;;;;;;8.24;63.76;101833.10;1702906;83;21490;-58
2021/10/04 01:42:31;;;;;;;15.93;10.55;;;;;;;8.22;63.84;101831.02;1679651;85;21718;-58
2021/10/04 01:44:58;;;;;;;18.95;11.70;;;;;;;8.22;63.84;101834.08;1670790;84;21020;-58
2021/10/04 01:47:24;;;;;;;19.60;11.78;;;;;;;8.21;63.73;101835.02;1676903;85;21529;-57
2021/10/04 01:49:50;;;;;;;19.10;10.88;;;;;;;8.16;63.49;101842.63;1650282;85;21103;-57
2021/10/04 01:52:17;;;;;;;17.30;10.78;;;;;;;8.09;63.39;101846.46;1703327;83;21530;-58
2021/10/04 01:54:43;;;;;;;18.75;11.57;;;;;;;8.00;63.64;101850.36;1698572;82;21712;-58
2021/10/04 01:57:09;;;;;;;16.17;11.57;;;;;;;7.90;63.94;101851.70;1702533;83;21055;-58
2021/10/04 01:59:36;;;;;;;14.65;10.65;;;;;;;7.87;64.21;101852.27;1684078;84;21088;-58
2021/10/04 02:02:03;;;;;;;16.67;10.35;;;;;;;7.91;64.14;101857.31;1677447;84;21122;-58
2021/10/04 02:04:31;;;;;;;19.60;11.57;;;;;;;7.95;64.21;101854.09;1673879;83;21165;-58
2021/10/04 02:06:57;;;;;;;18.07;11.53;;;;;;;7.96;64.31;101854.03;1675523;84;21516;-59
2021/10/04 02:09:24;;;;;;;16.57;11.73;;;;;;;7.93;64.50;101857.25;1678368;83;21088;-58
2021/10/04 02:25:47;;;;;;;18.12;11.28;;;;;;;9.38;61.57;101847.23;1767110;78;65116;-57
2021/10/04 02:28:16;;;;;;;17.65;12.18;;;;;;;9.52;61.03;101862.27;1765112;79;20991;-57
2021/10/04 02:30:42;;;;;;;16.90;11.63;;;;;;;9.41;60.86;101860.66;1772943;79;21183;-57
2021/10/04 02:33:09;;;;;;;18.02;11.57;;;;;;;9.26;60.85;101867.53;1774111;79;21409;-57
2021/10/04 02:35:36;;;;;;;18.60;11.70;;;;;;;9.14;61.11;101865.54;1769922;79;20981;-57
2021/10/04 02:38:03;;;;;;;20.12;11.95;;;;;;;9.00;61.13;101872.33;1755296;79;21633;-57
2021/10/04 02:40:30;;;;;;;20.10;12.53;;;;;;;8.85;61.38;101866.05;1765221;79;20970;-57
2021/10/04 02:42:56;;;;;;;19.02;11.65;;;;;;;8.69;61.59;101860.72;1758391;79;21278;-57
2021/10/04 02:45:23;;;;;;;17.62;11.28;;;;;;;8.57;61.83;101867.84;1760594;79;21073;-57
2021/10/04 02:47:51;;;;;;;19.67;11.80;;;;;;;8.46;61.96;101872.78;1764513;79;21049;-57
2021/10/04 02:50:19;;;;;;;21.10;12.68;;;;;;;8.32;62.17;101874.25;1761512;80;21545;-57
2021/10/04 02:52:45;;;;;;;19.62;11.50;;;;;;;8.22;62.45;101869.48;1724972;81;21153;-57
2021/10/04 02:55:12;;;;;;;16.65;10.58;;;;;;;8.13;62.75;101865.52;1764757;79;21111;-57
2021/10/04 02:57:39;;;;;;;16.75;11.63;;;;;;;8.06;62.70;101870.66;1749067;79;22692;-59
2021/10/04 03:00:08;;;;;;;16.85;11.38;;;;;;;7.96;62.82;101868.91;1729375;81;22786;-56
2021/10/04 03:02:35;;;;;;;15.75;9.45;;;;;;;7.93;62.84;101870.36;1755272;80;22727;-57
2021/10/04 03:05:01;;;;;;;13.70;9.53;;;;;;;7.95;62.86;101873.31;1751516;79;21065;-56
2021/10/04 03:07:27;;;;;;;16.87;10.25;;;;;;;7.99;62.70;101884.04;1756632;79;22020;-55
2021/10/04 03:09:54;;;;;;;15.45;10.80;;;;;;;8.02;62.70;101883.50;1720534;81;21055;-56
2021/10/04 03:12:20;;;;;;;14.80;9.93;;;;;;;7.99;62.67;101886.66;1702350;82;21108;-56
2021/10/04 03:14:47;;;;;;;14.63;10.23;;;;;;;7.95;62.68;101881.17;1753810;80;21087;-55
2021/10/04 03:17:13;;;;;;;14.23;9.63;;;;;;;7.95;62.63;101877.25;1761399;80;21065;-56
2021/10/04 03:19:40;;;;;;;15.23;8.95;;;;;;;7.95;62.64;101877.69;1705296;80;21848;-66
2021/10/04 03:22:07;;;;;;;17.90;8.85;;;;;;;7.94;62.58;101880.77;1738391;80;21120;-58
2021/10/04 03:24:33;;;;;;;11.20;7.50;;;;;;;7.86;62.59;101876.33;1750641;79;21985;-57
2021/10/04 03:27:00;;;;;;;12.37;8.88;;;;;;;7.77;62.82;101879.38;1756117;79;21168;-56
2021/10/04 03:29:27;;;;;;;13.72;9.05;;;;;;;7.67;63.02;101878.09;1758196;79;21123;-56
2021/10/04 03:31:53;;;;;;;16.00;9.18;;;;;;;7.57;63.22;101888.11;1743443;79;21141;-56
2021/10/04 03:34:20;;;;;;;16.05;10.00;;;;;;;7.46;63.54;101880.70;1731365;81;21113;-56
2021/10/04 03:36:46;;;;;;;12.10;7.62;;;;;;;7.38;63.91;101881.48;1730260;81;21132;-56
2021/10/04 03:39:12;;;;;;;13.05;8.60;;;;;;;7.39;64.07;101877.95;1705122;81;21113;-55
2021/10/04 03:41:39;;;;;;;14.65;7.95;;;;;;;7.47;63.99;101881.10;1766475;79;20999;-56
2021/10/04 03:44:06;;;;;;;14.55;9.20;;;;;;;7.55;63.91;101889.95;1731474;80;21137;-56
2021/10/04 03:46:32;;;;;;;14.98;9.38;;;;;;;7.59;63.99;101888.42;1750968;79;21089;-56
2021/10/04 03:48:59;;;;;;;19.98;10.43;;;;;;;7.59;64.06;101893.66;1768239;79;21096;-57
2021/10/04 03:51:26;;;;;;;14.73;10.05;;;;;;;7.56;64.15;101896.41;1748990;79;21231;-58
2021/10/04 03:53:52;;;;;;;15.80;10.45;;;;;;;7.52;64.26;101906.64;1725961;79;21091;-56
2021/10/04 03:56:19;;;;;;;17.48;11.38;;;;;;;7.50;64.30;101904.98;1755365;79;23303;-55
2021/10/04 03:58:45;;;;;;;18.35;11.68;;;;;;;7.47;64.30;101906.45;1755603;79;21105;-55
2021/10/04 04:01:11;;;;;;;18.45;11.60;;;;;;;7.43;64.38;101907.89;1705088;81;21333;-52
2021/10/04 04:03:38;;;;;;;20.35;12.07;;;;;;;7.39;64.49;101911.53;1769619;78;21470;-55
2021/10/04 04:06:05;;;;;;;17.12;11.65;;;;;;;7.34;64.59;101911.34;1751818;79;21112;-55
2021/10/04 04:08:34;;;;;;;18.67;12.10;;;;;;;7.32;64.76;101918.42;1769181;79;21149;-54
2021/10/04 04:11:02;;;;;;;19.77;11.00;;;;;;;7.27;64.75;101916.45;1756200;79;21074;-56
2021/10/04 04:13:29;;;;;;;17.12;9.75;;;;;;;7.25;64.85;101910.81;1720597;81;21451;-55
2021/10/04 04:15:55;;;;;;;18.98;9.95;;;;;;;7.33;64.84;101914.44;1748458;79;21113;-55
2021/10/04 04:18:21;;;;;;;16.10;10.10;;;;;;;7.41;64.82;101914.97;1748838;80;21335;-55
2021/10/04 04:20:47;;;;;;;20.10;11.03;;;;;;;7.51;64.88;101919.33;1728141;80;21057;-55
2021/10/04 04:23:14;;;;;;;18.25;10.58;;;;;;;7.56;64.87;101914.74;1708449;80;21249;-55
2021/10/04 04:25:40;;;;;;;20.35;12.50;;;;;;;7.61;65.06;101918.02;1710321;80;21128;-55
2021/10/04 04:28:07;;;;;;;17.80;10.70;;;;;;;7.67;65.04;101927.86;1667082;83;21102;-56
2021/10/04 04:30:34;;;;;;;19.65;12.13;;;;;;;7.72;64.95;101925.90;1695248;82;22030;-56
2021/10/04 04:33:00;;;;;;;18.00;10.65;;;;;;;7.74;64.82;101926.67;1703548;81;21149;-56
2021/10/04 04:35:27;;;;;;;18.05;10.60;;;;;;;7.76;64.63;101923.05;1736830;80;21611;-56
2021/10/04 04:37:53;;;;;;;19.62;11.30;;;;;;;7.76;64.64;101924.83;1749085;80;21057;-56
2021/10/04 04:40:19;;;;;;;21.68;11.93;;;;;;;7.76;64.75;101925.67;1739799;80;21102;-56
2021/10/04 04:42:46;;;;;;;15.58;10.35;;;;;;;7.79;64.76;101933.41;1719352;79;21180;-55
2021/10/04 04:45:19;;;;;;;21.48;11.18;;;;;;;7.76;64.77;101929.60;1704731;82;21053;-56
2021/10/04 04:47:47;;;;;;;15.83;10.93;;;;;;;7.76;64.97;101930.91;1711798;81;21050;-55
2021/10/04 04:50:14;;;;;;;15.80;10.55;;;;;;;7.80;64.97;101933.81;1720716;81;21092;-54
2021/10/04 04:52:41;;;;;;;14.10;9.98;;;;;;;7.90;64.98;101933.39;1695165;81;21184;-55
2021/10/04 04:55:08;;;;;;;17.57;11.03;;;;;;;7.98;65.09;101934.78;1703492;81;21078;-55
2021/10/04 04:57:35;;;;;;;18.02;10.58;;;;;;;8.09;65.26;101938.69;1701958;82;21138;-55
2021/10/04 05:00:06;;;;;;;21.90;11.03;;;;;;;8.19;65.48;101938.66;1753049;80;21663;-55
2021/10/04 05:02:36;;;;;;;16.65;10.95;;;;;;;8.24;65.44;101931.87;1746618;80;21517;-55
2021/10/04 05:05:01;;;;;;;19.42;10.85;;;;;;;8.30;65.58;101933.77;1755196;80;21509;-55
2021/10/04 05:07:27;;;;;;;18.12;11.88;;;;;;;8.35;65.54;101940.98;1736708;80;21117;-55
2021/10/04 05:09:54;;;;;;;18.95;11.38;;;;;;;8.38;65.54;101931.64;1695873;81;21188;-55
2021/10/04 05:12:21;;;;;;;21.73;11.85;;;;;;;8.41;65.64;101937.22;1725348;80;21581;-55
2021/10/04 05:14:47;;;;;;;19.15;11.20;;;;;;;8.45;65.71;101937.96;1698213;82;21122;-56
2021/10/04 05:17:14;;;;;;;19.65;11.20;;;;;;;8.44;65.65;101937.12;1739070;80;21146;-55
2021/10/04 05:19:40;;;;;;;19.87;12.03;;;;;;;8.44;65.73;101940.18;1741940;80;21133;-55
2021/10/04 05:22:06;;;;;;;16.67;10.90;;;;;;;8.47;65.87;101933.48;1693301;80;21823;-55
2021/10/04 05:24:32;;;;;;;20.72;10.78;;;;;;;8.57;65.79;101933.44;1727848;80;21118;-55
2021/10/04 05:26:59;;;;;;;15.83;9.08;;;;;;;8.67;65.79;101932.55;1732675;80;21442;-56
2021/10/04 05:29:25;;;;;;;14.65;8.80;;;;;;;8.77;65.71;101932.50;1732460;80;21076;-56
2021/10/04 05:31:52;;;;;;;18.30;8.85;;;;;;;8.86;65.68;101936.45;1742195;80;21050;-55
2021/10/04 05:34:19;;;;;;;15.23;8.48;;;;;;;8.90;65.23;101930.99;1740769;80;21207;-55
2021/10/04 05:36:45;;;;;;;14.07;8.70;;;;;;;8.94;64.74;101936.94;1720474;80;21106;-55
2021/10/04 05:39:12;;;;;;;12.13;7.85;;;;;;;8.98;64.28;101935.89;1748985;80;21110;-56
2021/10/04 05:41:38;;;;;;;13.62;8.23;;;;;;;9.04;64.03;101942.61;1720494;81;21053;-55
2021/10/04 05:44:05;;;;;;;13.28;7.65;;;;;;;9.05;63.75;101945.16;1763429;80;21070;-55
2021/10/04 05:46:31;;;;;;;19.85;8.85;;;;;;;9.06;63.60;101948.19;1710624;80;21151;-55
2021/10/04 05:48:57;;;;;;;14.80;7.75;;;;;;;9.07;63.60;101947.23;1732180;80;21027;-58
2021/10/04 05:51:24;;;;;;;10.55;7.00;;;;;;;9.09;63.29;101946.72;1730716;80;21198;-55
2021/10/04 05:53:50;;;;;;;14.00;8.15;;;;;;;9.10;63.14;101951.03;1732115;80;21051;-55
2021/10/04 05:56:16;;;;;;;14.93;7.12;;;;;;;9.08;63.08;101956.83;1710464;81;21113;-54
2021/10/04 05:58:43;;;;;;;14.10;7.08;;;;;;;9.07;62.94;101952.48;1746703;80;21244;-63
2021/10/04 06:01:09;;;;;;;14.10;8.10;;;;;;;9.14;62.92;101957.45;1727033;80;21069;-55
2021/10/04 06:03:35;;;;;;;17.60;7.00;;;;;;;9.22;62.69;101952.20;1705415;80;21659;-54
2021/10/04 06:06:01;;;;;;;12.00;7.42;;;;;;;9.32;62.66;101957.86;1689745;81;21138;-55
2021/10/04 06:08:28;;;;;;;19.00;8.25;;;;;;;9.38;62.70;101952.75;1709989;81;21536;-56
2021/10/04 06:10:56;;;;;;;17.15;7.97;;;;;;;9.40;62.72;101957.02;1709003;81;21068;-58
2021/10/04 06:13:23;;;;;;;11.43;7.47;;;;;;;9.42;62.45;101955.16;1682975;82;20989;-57
2021/10/04 06:15:50;;;;;;;13.32;7.83;;;;;;;9.46;62.33;101949.28;1687604;82;21576;-56
2021/10/04 06:18:18;;;;;;;14.10;8.05;;;;;;;9.54;62.10;101950.22;1707034;82;21114;-55
2021/10/04 06:20:45;;;;;;;13.18;8.50;;;;;;;9.57;62.01;101944.34;1707074;81;21079;-58
2021/10/04 06:23:11;;;;;;;15.48;7.95;;;;;;;9.64;61.89;101947.03;1715946;81;21963;-58
2021/10/04 06:25:37;;;;;;;13.70;8.08;;;;;;;9.74;61.81;101955.78;1701793;81;21105;-55
2021/10/04 06:28:04;;;;;;;16.42;7.55;;;;;;;9.79;61.70;101951.13;1720640;80;21710;-55
2021/10/04 06:30:30;;;;;;;13.08;7.70;;;;;;;9.84;61.78;101953.06;1735064;80;20999;-56
2021/10/04 06:32:57;;;;;;;11.95;7.55;;;;;;;9.90;61.86;101956.70;1736165;80;21642;-55
2021/10/04 06:35:23;;;;;;;12.45;7.22;;;;;;;9.99;61.61;101955.36;1731042;80;21126;-55
2021/10/04 06:37:50;;;;;;;13.15;7.55;;;;;;;10.12;61.22;101955.54;1712880;81;21003;-56
2021/10/04 06:40:17;;;;;;;15.68;8.58;;;;;;;10.26;60.95;101960.92;1712222;80;21077;-56
2021/10/04 06:42:45;;;;;;;15.78;8.55;;;;;;;10.36;60.90;101957.38;1731791;80;21621;-56
2021/10/04 06:45:11;;;;;;;13.90;8.00;;;;;;;10.43;60.78;101966.63;1698798;82;21055;-55
2021/10/04 06:47:40;;;;;;;15.45;8.63;;;;;;;10.51;60.50;101960.48;1697619;82;21482;-55
2021/10/04 06:50:09;;;;;;;12.13;8.30;;;;;;;10.57;60.54;101961.48;1712572;80;21167;-54
2021/10/04 06:52:38;;;;;;;11.48;7.30;;;;;;;10.66;60.42;101961.43;1738696;79;21533;-56
2021/10/04 06:55:06;;;;;;;12.60;8.40;;;;;;;10.74;60.41;101960.55;1707077;80;21566;-54
2021/10/04 06:57:33;;;;;;;11.97;7.70;;;;;;;10.81;60.14;101960.17;1718342;80;21117;-55
2021/10/04 06:59:59;;;;;;;15.93;8.80;;;;;;;10.86;59.73;101961.64;1731922;80;22550;-55
2021/10/04 07:02:25;;;;;;;11.40;8.15;;;;;;;10.88;59.92;101961.55;1737380;80;21135;-54
2021/10/04 07:04:53;;;;;;;14.75;8.75;;;;;;;10.91;59.90;101964.86;1730265;80;21489;-54
2021/10/04 07:07:20;;;;;;;12.10;7.70;;;;;;;10.93;59.93;101960.35;1731729;80;21045;-55
2021/10/04 07:09:47;;;;;;;14.13;8.53;;;;;;;10.94;60.00;101960.75;1697117;82;21565;-55
2021/10/04 07:12:13;;;;;;;13.78;7.50;;;;;;;11.03;59.98;101954.55;1683829;82;21264;-55
2021/10/04 07:14:39;;;;;;;15.13;7.90;;;;;;;11.14;59.61;101956.95;1707079;81;21110;-55
2021/10/04 07:17:06;;;;;;;11.45;7.58;;;;;;;11.25;59.52;101957.66;1714811;81;21126;-56
2021/10/04 07:19:32;;;;;;;13.15;8.50;;;;;;;11.34;59.68;101952.33;1709377;81;21091;-57
2021/10/04 07:21:59;;;;;;;14.35;8.53;;;;;;;11.42;59.33;101955.36;1712850;81;21420;-56
2021/10/04 07:24:26;;;;;;;13.58;8.68;;;;;;;11.52;58.86;101952.56;1711933;81;21094;-57
2021/10/04 07:26:52;;;;;;;16.35;10.00;;;;;;;11.60;58.69;101954.76;1705978;81;21062;-56
2021/10/04 07:29:18;;;;;;;14.58;8.45;;;;;;;11.67;58.75;101949.97;1748172;79;21561;-57
2021/10/04 07:31:46;;;;;;;14.40;9.13;;;;;;;11.74;58.63;101951.30;1748136;80;21110;-57
2021/10/04 07:34:12;;;;;;;16.73;9.33;;;;;;;11.81;58.64;101951.77;1720000;81;21148;-56
2021/10/04 07:36:39;;;;;;;15.30;8.80;;;;;;;11.89;58.08;101952.16;1740819;80;22310;-56
2021/10/04 07:39:06;;;;;;;14.98;8.88;;;;;;;11.97;58.11;101956.53;1747833;80;21089;-56
2021/10/04 07:41:34;;;;;;;17.70;9.25;;;;;;;12.05;58.15;101954.28;1725761;80;21088;-56
2021/10/04 07:44:00;;;;;;;13.05;8.20;;;;;;;12.13;57.78;101955.11;1700465;81;21117;-56
2021/10/04 07:46:27;;;;;;;12.80;8.23;;;;;;;12.20;57.49;101955.58;1739796;80;21076;-54
2021/10/04 07:48:53;;;;;;;13.22;8.28;;;;;;;12.26;57.36;101954.73;1716061;80;21043;-56
2021/10/04 07:51:20;;;;;;;14.25;8.75;;;;;;;12.33;56.94;101959.16;1718164;81;21034;-56
2021/10/04 07:53:47;;;;;;;13.95;8.33;;;;;;;12.38;56.83;101945.20;1694978;80;21077;-56
2021/10/04 07:56:13;;;;;;;13.80;8.08;;;;;;;12.41;56.85;101947.66;1731048;80;21517;-57
2021/10/04 07:58:39;;;;;;;18.92;8.85;;;;;;;12.48;56.89;101952.55;1720829;81;21076;-57
2021/10/04 08:01:06;;;;;;;15.32;7.53;;;;;;;12.59;56.81;101950.06;1705292;81;22609;-56
2021/10/04 08:03:32;;;;;;;13.65;5.95;;;;;;;12.74;56.59;101954.39;1718697;80;21136;-57
2021/10/04 08:05:58;;;;;;;15.32;8.08;;;;;;;12.90;56.15;101952.07;1713440;80;21234;-56
2021/10/04 08:08:25;;;;;;;16.35;8.20;;;;;;;13.05;55.55;101956.35;1737575;80;21078;-57
2021/10/04 08:10:51;;;;;;;15.40;7.62;;;;;;;13.17;55.26;101950.25;1747002;80;21096;-57
2021/10/04 08:13:18;;;;;;;12.53;7.17;;;;;;;13.31;54.58;101947.16;1712536;80;21995;-56
2021/10/04 08:15:44;;;;;;;13.00;7.92;;;;;;;13.43;54.12;101945.08;1705237;81;21014;-57
2021/10/04 08:18:10;;;;;;;12.25;7.67;;;;;;;13.51;54.26;101944.54;1719907;81;20998;-56
2021/10/04 08:20:37;;;;;;;13.95;7.72;;;;;;;13.59;54.25;101942.23;1736307;80;21046;-57
2021/10/04 08:23:03;;;;;;;12.03;7.55;;;;;;;13.69;54.16;101934.52;1728670;80;21046;-56
2021/10/04 08:25:29;;;;;;;10.23;6.47;;;;;;;13.80;53.52;101934.63;1726578;80;21125;-56
2021/10/04 08:27:55;;;;;;;9.48;5.55;;;;;;;13.88;53.24;101934.92;1728615;81;20994;-56
2021/10/04 08:30:22;;;;;;;8.88;5.17;;;;;;;13.96;52.15;101938.86;1723142;81;21088;-56
2021/10/04 08:32:48;;;;;;;8.83;5.35;;;;;;;14.00;51.21;101943.80;1731552;80;21101;-56
2021/10/04 08:35:14;;;;;;;10.80;5.95;;;;;;;14.03;50.72;101938.79;1717922;82;21101;-56
2021/10/04 08:37:41;;;;;;;9.50;4.97;;;;;;;14.09;50.52;101939.20;1693212;82;22562;-56
2021/10/04 08:40:50;;;;;;;10.82;5.42;;;;;;;14.19;50.14;101927.50;1797236;77;22326;-61
2021/10/04 08:43:17;;;;;;;10.28;5.20;;;;;;;14.25;50.64;101936.80;1777685;80;21014;-59
2021/10/04 08:45:44;;;;;;;8.48;4.05;;;;;;;14.33;50.64;101927.83;1747420;80;21075;-60
2021/10/04 08:48:11;;;;;;;7.80;3.75;;;;;;;14.42;50.01;101936.91;1770884;80;21669;-59
2021/10/04 08:50:38;;;;;;;7.40;3.72;;;;;;;14.49;49.09;101931.53;1749845;80;21011;-60
2021/10/04 08:53:05;;;;;;;7.95;3.83;;;;;;;14.56;47.74;101939.43;1777523;80;21035;-57
2021/10/04 08:55:32;;;;;;;7.78;3.83;;;;;;;14.64;47.71;101941.54;1771459;80;21598;-58
2021/10/04 08:57:58;;;;;;;9.05;3.98;;;;;;;14.73;47.06;101940.05;1770608;80;21074;-61
2021/10/04 09:00:24;;;;;;;8.40;3.80;;;;;;;14.84;46.48;101935.66;1765568;78;21685;-59
2021/10/04 09:02:56;;;;;;;8.30;3.55;;;;;;;14.94;46.49;101942.91;1679616;83;21102;-59
2021/10/04 09:05:27;;;;;;;7.50;3.80;;;;;;;15.03;46.17;101927.17;1717337;81;21077;-60
2021/10/04 09:08:07;;;;;;;7.90;3.42;;;;;;;15.14;45.81;101929.50;1717170;82;21777;-59
2021/10/04 09:10:38;;;;;;;7.28;4.05;;;;;;;15.23;45.29;101932.31;1712832;81;21108;-59
2021/10/04 09:13:13;;;;;;;6.97;3.50;;;;;;;15.33;44.69;101929.83;1712903;81;20997;-60
2021/10/04 09:15:41;;;;;;;;;;;;;;;15.45;43.83;101924.52;1720610;81;21122;-61
2021/10/04 09:18:27;;;;;;;7.72;3.22;;;;;;;15.57;42.41;101922.28;1700600;82;20260;-57
2021/10/04 09:21:00;;;;;;;5.12;2.62;;;;;;;15.58;41.31;101922.16;1681194;83;21057;-58
2021/10/04 09:23:48;;;;;;;6.10;2.98;;;;;;;15.68;40.84;101924.93;1709124;81;21173;-59
2021/10/04 09:26:31;;;;;;;5.90;3.08;;;;;;;15.77;41.13;101922.10;1675631;83;21115;-58
2021/10/04 09:29:10;;;;;;;6.87;3.52;;;;;;;15.84;40.05;101919.33;1718159;81;21730;-61
2021/10/04 09:31:39;;;;;;;6.35;3.12;;;;;;;15.92;41.19;101912.94;1721016;82;22261;-59
2021/10/04 09:34:23;;;;;;;6.70;3.42;;;;;;;15.96;40.63;101915.70;1714746;81;21590;-60
2021/10/04 09:36:52;;;;;;;6.00;3.05;;;;;;;16.04;40.75;101912.91;1718315;81;22035;-59
2021/10/04 09:39:26;;;;;;;7.75;3.75;;;;;;;16.13;39.38;101909.55;1716714;82;21074;-59
2021/10/04 09:42:09;;;;;;;5.97;2.98;;;;;;;16.21;39.77;101904.47;1707246;83;21091;-58
2021/10/04 09:44:50;;;;;;;6.58;3.40;;;;;;;16.30;39.42;101901.55;1666086;83;21710;-58
2021/10/04 09:47:29;;;;;;;6.67;3.65;;;;;;;16.39;40.26;101902.62;1677611;84;21048;-58
2021/10/04 09:50:15;;;;;;;7.08;3.83;;;;;;;16.47;39.59;101898.37;1680864;83;21161;-60
2021/10/04 09:52:52;;;;;;;;;;;;;;;16.56;39.17;101902.58;1684784;84;21105;-60
2021/10/04 09:55:27;;;;;;;6.55;3.37;;;;;;;16.62;39.89;101902.09;1653782;84;20128;-59
2021/10/04 09:58:20;;;;;;;7.55;3.27;;;;;;;16.60;39.54;101894.73;1720817;81;21044;-59
2021/10/04 10:00:53;;;;;;;7.95;3.65;;;;;;;16.66;39.55;101894.21;1743354;81;22035;-59
2021/10/04 10:03:22;;;;;;;6.03;3.25;;;;;;;16.70;39.46;101892.52;1740907;80;21129;-59
2021/10/04 10:05:53;;;;;;;5.45;3.00;;;;;;;16.79;38.77;101891.40;1699572;81;21142;-59
2021/10/04 10:08:22;;;;;;;7.33;3.98;;;;;;;16.88;38.45;101890.19;1734952;80;21604;-61
2021/10/04 10:10:51;;;;;;;6.62;3.87;;;;;;;16.96;38.13;101888.20;1741260;80;21032;-59
2021/10/04 10:13:20;;;;;;;7.50;3.22;;;;;;;17.03;37.68;101889.41;1713989;80;21116;-59
2021/10/04 10:15:51;;;;;;;6.53;3.52;;;;;;;17.12;37.86;101889.11;1741349;80;21778;-59
2021/10/04 10:18:26;;;;;;;5.58;3.02;;;;;;;17.21;37.87;101883.50;1709793;82;21624;-59
2021/10/04 10:20:59;;;;;;;8.30;3.50;;;;;;;17.30;37.59;101884.06;1740349;80;21051;-59
2021/10/04 10:23:59;;;;;;;6.22;3.42;;;;;;;17.38;36.94;101883.39;1709831;82;21058;-59
2021/10/04 10:26:39;;;;;;;5.75;2.80;;;;;;;17.45;37.01;101876.59;1739613;80;20983;-58
2021/10/04 10:29:16;;;;;;;6.60;3.55;;;;;;;17.54;36.79;101875.79;1741935;81;21100;-59
2021/10/04 10:31:57;;;;;;;7.28;3.35;;;;;;;17.62;36.14;101875.98;1740008;80;20981;-59
2021/10/04 10:34:36;;;;;;;4.95;2.90;;;;;;;17.73;35.54;101875.03;1710797;81;21095;-61
2021/10/04 10:37:10;;;;;;;8.25;3.22;;;;;;;17.81;35.06;101877.04;1709821;82;21914;-61
2021/10/04 10:39:53;;;;;;;5.40;3.00;;;;;;;17.87;35.82;101873.88;1746643;80;21110;-60
2021/10/04 10:42:35;;;;;;;11.05;4.35;;;;;;;17.94;35.63;101877.69;1745995;80;21556;-61
2021/10/04 10:45:08;;;;;;;6.72;3.08;;;;;;;17.99;35.88;101872.80;1754224;80;21038;-58
2021/10/04 10:47:40;;;;;;;;;;;;;;;18.08;35.49;101872.97;1757571;79;20971;-59
2021/10/04 10:50:30;;;;;;;5.03;2.42;;;;;;;18.13;34.74;101872.06;1738425;80;20207;-59
2021/10/04 10:53:02;;;;;;;5.50;3.10;;;;;;;18.10;35.50;101864.34;1741676;80;21047;-59
2021/10/04 10:55:40;;;;;;;6.12;3.33;;;;;;;18.11;34.26;101871.37;1756060;80;21157;-58
2021/10/04 10:58:16;;;;;;;4.90;2.75;;;;;;;18.12;34.90;101866.38;1760070;80;21074;-59
2021/10/04 11:00:46;;;;;;;6.20;2.47;;;;;;;18.12;34.25;101866.38;1743037;80;21025;-59
2021/10/04 11:03:21;;;;;;;6.12;2.87;;;;;;;18.12;34.79;101861.05;1759849;80;21607;-58
2021/10/04 11:06:04;;;;;;;8.40;2.95;;;;;;;18.17;35.14;101869.47;1741545;80;21133;-58
2021/10/04 11:08:52;;;;;;;5.28;2.58;;;;;;;18.22;34.61;101860.58;1740559;80;21263;-58
2021/10/04 11:11:19;;;;;;;4.58;2.52;;;;;;;18.25;33.75;101854.98;1753962;80;21400;-58
2021/10/04 11:14:00;;;;;;;7.37;3.17;;;;;;;18.26;34.26;101850.52;1741139;79;21046;-58
2021/10/04 11:16:31;;;;;;;5.03;2.77;;;;;;;18.24;34.03;101852.45;1758158;79;21063;-57
2021/10/04 11:18:58;;;;;;;6.40;2.90;;;;;;;18.23;34.14;101846.29;1739094;80;21068;-58
2021/10/04 11:21:27;;;;;;;6.60;3.42;;;;;;;18.22;34.38;101843.27;1730149;80;21051;-58
2021/10/04 11:24:03;;;;;;;6.00;3.10;;;;;;;18.24;34.49;101845.32;1757617;79;21122;-58
2021/10/04 11:26:35;;;;;;;5.37;2.37;;;;;;;18.31;34.96;101847.78;1730242;80;21168;-58
2021/10/04 11:29:04;;;;;;;5.05;2.37;;;;;;;18.35;34.46;101849.17;1750639;79;21138;-58
2021/10/04 11:31:34;;;;;;;6.20;2.85;;;;;;;18.39;34.14;101851.06;1764153;80;20996;-57
2021/10/04 11:34:04;;;;;;;5.72;3.12;;;;;;;18.42;33.98;101848.13;1763799;80;22207;-58
2021/10/04 11:36:37;;;;;;;4.87;2.37;;;;;;;18.50;34.31;101851.45;1756344;79;21116;-58
2021/10/04 11:39:14;;;;;;;4.92;2.60;;;;;;;18.60;34.65;101849.63;1761175;80;20988;-58
2021/10/04 11:41:48;;;;;;;6.12;3.05;;;;;;;18.71;34.11;101848.63;1712856;80;21093;-58
2021/10/04 11:44:21;;;;;;;6.25;2.72;;;;;;;18.79;33.80;101848.77;1736326;80;21031;-59